Time;durP1;ratioP1;P1;durP2;ratioP2;P2;SDS_P1;SDS_P2;PMS_P1;PMS_P2;Temp;Humidity;BMP_temperature;BMP_pressure;BME280_temperature;BME280_humidity;BME280_pressure;Samples;Min_cycle;Max_cycle;Signal;HPM_P1;HPM_P2
2024/01/26 00:00:12;;;;;;;117.47;47.75;;;7.90;99.90;;;;;;5116785;28;20044;-94
2024/01/26 00:02:44;;;;;;;119.70;46.00;;;7.30;99.90;;;;;;5066769;28;20039;-93
2024/01/26 00:05:28;;;;;;;121.75;48.08;;;7.10;99.90;;;;;;5083397;28;20047;-94
2024/01/26 00:08:01;;;;;;;117.03;45.92;;;8.00;99.90;;;;;;5083365;28;20036;-94
2024/01/26 00:10:34;;;;;;;119.13;47.08;;;8.00;99.90;;;;;;5100401;28;20109;-94
2024/01/26 00:13:13;;;;;;;112.30;45.13;;;7.50;99.90;;;;;;5083026;28;20130;-94
2024/01/26 00:15:50;;;;;;;;;;;;;;;;;;;;;
2024/01/26 00:18:16;;;;;;;102.10;44.42;;;8.00;99.90;;;;;;5084629;28;20056;-95
2024/01/26 00:21:04;;;;;;;;;;;;;;;;;;;;;
2024/01/26 00:23:35;;;;;;;102.57;43.88;;;8.30;99.90;;;;;;5096432;28;20048;-94
2024/01/26 00:26:01;;;;;;;95.55;42.78;;;8.10;99.90;;;;;;5079062;28;20055;-94
2024/01/26 00:28:34;;;;;;;106.90;43.08;;;8.30;99.90;;;;;;5095145;28;20523;-94
2024/01/26 00:31:13;;;;;;;113.18;47.42;;;8.30;99.90;;;;;;5083284;28;20073;-94
2024/01/26 00:33:44;;;;;;;110.50;45.35;;;8.30;99.90;;;;;;5083511;28;20481;-94
2024/01/26 00:36:11;;;;;;;105.00;45.22;;;8.30;99.90;;;;;;5099542;28;20051;-94
2024/01/26 00:38:39;;;;;;;104.28;44.90;;;8.30;99.90;;;;;;5082705;28;20087;-94
2024/01/26 00:41:15;;;;;;;106.47;44.72;;;8.30;99.90;;;;;;5099207;28;20108;-94
2024/01/26 00:43:52;;;;;;;107.63;40.92;;;9.40;99.90;;;;;;5084097;28;20086;-94
2024/01/26 00:46:22;;;;;;;100.47;43.45;;;8.30;99.90;;;;;;5098918;28;20048;-94
2024/01/26 00:48:54;;;;;;;103.10;42.58;;;8.40;99.90;;;;;;5082592;28;20284;-94
2024/01/26 00:51:23;;;;;;;105.40;44.70;;;8.60;99.90;;;;;;5081891;28;20044;-94
2024/01/26 00:53:56;;;;;;;87.97;40.30;;;8.40;99.90;;;;;;5098948;28;20043;-94
2024/01/26 00:56:31;;;;;;;89.10;40.75;;;8.40;99.90;;;;;;5098408;28;20130;-94
2024/01/26 00:59:06;;;;;;;94.43;43.20;;;8.40;99.90;;;;;;5098061;28;20043;-94
2024/01/26 01:01:47;;;;;;;89.30;39.60;;;8.50;99.90;;;;;;5098710;28;20059;-94
2024/01/26 01:04:29;;;;;;;98.25;40.83;;;8.50;99.90;;;;;;5083253;28;20040;-94
2024/01/26 01:06:58;;;;;;;92.78;40.08;;;8.50;99.90;;;;;;5082925;28;20128;-95
2024/01/26 01:09:42;;;;;;;;;;;;;;;;;;;;;
2024/01/26 01:12:13;;;;;;;91.35;41.30;;;8.50;99.90;;;;;;5100858;28;20496;-94
2024/01/26 01:14:49;;;;;;;;;;;;;;;;;;;;;
2024/01/26 01:17:20;;;;;;;87.18;38.92;;;8.50;99.90;;;;;;5115497;28;20082;-94
2024/01/26 01:19:57;;;;;;;90.63;39.38;;;7.70;99.90;;;;;;5097875;28;20086;-94
2024/01/26 01:22:23;;;;;;;88.77;38.13;;;8.50;99.90;;;;;;5098338;28;20047;-95
2024/01/26 01:24:56;;;;;;;79.93;35.90;;;8.50;99.90;;;;;;5098223;28;20285;-94
2024/01/26 01:27:32;;;;;;;84.30;40.60;;;8.40;99.90;;;;;;5098279;28;20043;-94
2024/01/26 01:30:03;;;;;;;80.63;37.23;;;8.60;99.90;;;;;;5111887;28;20046;-94
2024/01/26 01:32:36;;;;;;;81.05;36.25;;;8.60;99.90;;;;;;5094722;28;20048;-95
2024/01/26 01:35:07;;;;;;;79.93;37.30;;;8.60;99.90;;;;;;5094022;28;20143;-94
2024/01/26 01:37:36;;;;;;;85.40;40.20;;;8.60;99.90;;;;;;5077926;28;20052;-94
2024/01/26 01:40:06;;;;;;;84.38;36.72;;;8.60;99.90;;;;;;5077223;28;20071;-94
2024/01/26 01:42:49;;;;;;;81.13;37.88;;;7.70;99.90;;;;;;5094733;28;20128;-94
2024/01/26 01:45:26;;;;;;;79.07;36.90;;;8.60;99.90;;;;;;5065220;28;20036;-94
2024/01/26 01:48:00;;;;;;;79.53;37.42;;;8.60;99.90;;;;;;5077833;28;20055;-94
2024/01/26 01:50:56;;;;;;;;;;;;;;;;;;;;;
2024/01/26 01:53:40;;;;;;;78.75;36.40;;;8.70;99.90;;;;;;5094552;28;20043;-95
2024/01/26 01:56:20;;;;;;;78.93;38.58;;;8.70;99.90;;;;;;5111867;28;20055;-94
2024/01/26 01:59:10;;;;;;;80.05;37.17;;;8.70;99.90;;;;;;5080114;28;20543;-95
2024/01/26 02:01:46;;;;;;;70.88;35.58;;;8.80;99.90;;;;;;5094438;28;20044;-95
2024/01/26 02:04:14;;;;;;;72.93;36.42;;;9.10;99.90;;;;;;5111388;28;20079;-94
2024/01/26 02:07:00;;;;;;;70.82;35.20;;;8.80;99.90;;;;;;5093940;28;20073;-94
2024/01/26 02:09:38;;;;;;;70.28;35.05;;;7.80;99.90;;;;;;5093417;28;20044;-95
2024/01/26 02:12:11;;;;;;;63.38;33.03;;;7.80;99.90;;;;;;5111149;28;20090;-94
2024/01/26 02:14:47;;;;;;;;;;;;;;;;;;;;;
2024/01/26 02:17:31;;;;;;;61.83;29.65;;;8.80;99.90;;;;;;5094520;28;20048;-94
2024/01/26 02:19:59;;;;;;;67.88;33.38;;;8.90;99.90;;;;;;5094172;28;20101;-94
2024/01/26 02:22:28;;;;;;;53.40;30.58;;;8.80;99.90;;;;;;5093647;28;20048;-94
2024/01/26 02:25:06;;;;;;;;;;;;;;;;;;;;;
2024/01/26 02:27:49;;;;;;;55.92;29.15;;;8.90;99.90;;;;;;5111800;28;20043;-95
2024/01/26 02:30:26;;;;;;;54.45;27.80;;;8.90;99.90;;;;;;5083640;28;20082;-95
2024/01/26 02:33:09;;;;;;;47.83;26.35;;;8.90;99.90;;;;;;5096660;28;20075;-94
2024/01/26 02:35:38;;;;;;;46.95;26.35;;;9.00;99.90;;;;;;5096683;28;20074;-94
2024/01/26 02:38:42;;;;;;;46.88;25.80;;;9.00;99.90;;;;;;5080949;28;20039;-95
2024/01/26 02:41:15;;;;;;;43.03;25.02;;;7.90;99.90;;;;;;5101327;28;20096;-95
2024/01/26 02:44:02;;;;;;;;;;;;;;;;;;;;;
2024/01/26 02:46:28;;;;;;;36.65;22.40;;;8.90;99.90;;;;;;5084492;28;20051;-94
2024/01/26 02:48:54;;;;;;;42.80;26.50;;;8.90;99.90;;;;;;5097358;28;20134;-95
2024/01/26 02:51:23;;;;;;;38.17;23.48;;;9.00;99.90;;;;;;5114337;28;20044;-95
2024/01/26 02:56:47;;;;;;;41.92;24.92;;;8.30;99.90;;;;;;5113779;28;20058;-95
2024/01/26 02:59:40;;;;;;;38.03;23.45;;;8.80;99.90;;;;;;5096972;28;20055;-94
2024/01/26 03:02:17;;;;;;;39.45;23.35;;;8.90;99.90;;;;;;5100390;28;20154;-94
2024/01/26 03:04:45;;;;;;;38.90;23.25;;;8.90;99.90;;;;;;5080344;28;20048;-94
2024/01/26 03:07:24;;;;;;;37.58;22.58;;;8.90;99.90;;;;;;5064758;28;20040;-94
2024/01/26 03:09:53;;;;;;;35.28;22.20;;;8.90;99.90;;;;;;5096690;28;20140;-95
2024/01/26 03:12:25;;;;;;;35.33;21.88;;;8.10;99.90;;;;;;5097458;28;20047;-94
2024/01/26 03:15:03;;;;;;;34.88;22.27;;;8.90;99.90;;;;;;5096204;28;20036;-94
2024/01/26 03:17:42;;;;;;;33.08;21.02;;;8.90;99.90;;;;;;5097652;28;20054;-93
2024/01/26 03:20:20;;;;;;;32.00;20.52;;;8.90;99.90;;;;;;5083066;28;20075;-95
2024/01/26 03:22:56;;;;;;;33.33;21.45;;;8.90;99.90;;;;;;5100496;28;20070;-94
2024/01/26 03:25:45;;;;;;;34.40;21.48;;;9.00;99.90;;;;;;5117760;28;20058;-94
2024/01/26 03:28:16;;;;;;;31.80;19.33;;;8.90;99.90;;;;;;5117385;28;20035;-94
2024/01/26 03:30:48;;;;;;;37.00;21.55;;;8.90;99.90;;;;;;5085048;28;20082;-95
2024/01/26 03:33:17;;;;;;;32.10;20.45;;;9.10;99.90;;;;;;5135010;27;20508;-95
2024/01/26 03:36:15;;;;;;;35.55;20.75;;;9.00;99.90;;;;;;5083639;28;20082;-94
2024/01/26 03:38:51;;;;;;;35.17;20.50;;;8.90;99.90;;;;;;5086705;28;20134;-95
2024/01/26 03:41:37;;;;;;;34.10;20.92;;;8.90;99.90;;;;;;5083955;28;20044;-94
2024/01/26 03:44:23;;;;;;;29.38;18.77;;;8.90;99.90;;;;;;5119520;27;20100;-94
2024/01/26 03:46:54;;;;;;;34.45;19.85;;;8.00;99.90;;;;;;5133372;27;20055;-96
2024/01/26 03:49:20;;;;;;;34.03;20.63;;;9.90;99.90;;;;;;5083063;28;20477;-94
2024/01/26 03:51:53;;;;;;;33.10;21.02;;;8.30;99.90;;;;;;5133019;27;20046;-94
2024/01/26 03:54:24;;;;;;;32.70;21.55;;;9.10;99.90;;;;;;5117085;27;20541;-95
2024/01/26 03:56:50;;;;;;;35.80;21.30;;;9.00;99.90;;;;;;5116546;28;20511;-95
2024/01/26 03:59:19;;;;;;;38.58;22.38;;;9.00;99.90;;;;;;5132808;27;20047;-94
2024/01/26 04:02:05;;;;;;;;;;;;;;;;;;;;;
2024/01/26 04:04:36;;;;;;;36.75;21.55;;;9.00;99.90;;;;;;5101526;28;20051;-95
2024/01/26 04:07:08;;;;;;;34.33;21.45;;;9.10;99.90;;;;;;5100378;28;20124;-95
2024/01/26 04:09:39;;;;;;;39.88;22.95;;;9.10;99.90;;;;;;5100058;28;20044;-94
2024/01/26 04:12:15;;;;;;;42.55;21.83;;;9.20;99.90;;;;;;5100757;28;20138;-95
2024/01/26 04:14:44;;;;;;;41.42;24.25;;;9.10;99.90;;;;;;5116769;28;20086;-94
2024/01/26 04:17:31;;;;;;;39.60;22.70;;;9.10;99.90;;;;;;5100306;28;20046;-94
2024/01/26 04:20:03;;;;;;;37.78;22.00;;;9.00;99.90;;;;;;5118537;27;20457;-94
2024/01/26 04:22:46;;;;;;;;;;;;;;;;;;;;;
2024/01/26 04:25:15;;;;;;;40.78;23.23;;;9.10;99.90;;;;;;5115974;28;20059;-95
2024/01/26 04:27:46;;;;;;;34.83;21.67;;;9.10;99.90;;;;;;5083550;28;20130;-95
2024/01/26 04:30:18;;;;;;;40.88;22.23;;;9.20;99.90;;;;;;5079006;28;20048;-95
2024/01/26 04:32:55;;;;;;;36.33;21.15;;;9.10;99.90;;;;;;5062587;28;20080;-93
2024/01/26 04:35:30;;;;;;;;;;;9.10;99.90;;;;;;5063595;28;20067;-94
2024/01/26 04:38:05;;;;;;;40.55;22.23;;;9.10;99.90;;;;;;5079397;28;19927;-94
2024/01/26 04:40:41;;;;;;;36.63;20.42;;;9.20;99.90;;;;;;5078955;28;20528;-94
2024/01/26 04:43:14;;;;;;;38.40;21.30;;;9.20;99.90;;;;;;5079329;28;20155;-94
2024/01/26 04:45:54;;;;;;;39.95;21.23;;;9.20;99.90;;;;;;5079431;28;20139;-95
2024/01/26 04:48:32;;;;;;;38.47;21.60;;;9.30;99.90;;;;;;5061836;28;20051;-95
2024/01/26 04:51:04;;;;;;;35.80;21.83;;;9.30;99.90;;;;;;5062579;28;20051;-94
2024/01/26 04:53:34;;;;;;;35.03;20.73;;;9.30;99.90;;;;;;5078962;28;20433;-94
2024/01/26 04:56:19;;;;;;;33.95;20.80;;;9.30;99.90;;;;;;5062221;28;20048;-94
2024/01/26 04:59:02;;;;;;;;;;;;;;;;;;;;;
2024/01/26 05:01:31;;;;;;;37.92;19.95;;;9.30;99.90;;;;;;5100200;28;20044;-94
2024/01/26 05:04:06;;;;;;;37.80;21.58;;;9.30;99.90;;;;;;5098383;28;20051;-94
2024/01/26 05:06:43;;;;;;;35.03;21.05;;;9.30;99.90;;;;;;5099329;28;20048;-96
2024/01/26 05:09:14;;;;;;;32.83;20.47;;;9.40;99.90;;;;;;5081930;28;20039;-95
2024/01/26 05:11:58;;;;;;;;;;;;;;;;;;;;;
2024/01/26 05:14:30;;;;;;;38.38;21.83;;;9.40;99.90;;;;;;5100118;28;20053;-95
2024/01/26 05:17:01;;;;;;;36.17;20.02;;;9.40;99.90;;;;;;5066035;28;20036;-94
2024/01/26 05:19:35;;;;;;;38.42;22.45;;;9.50;99.90;;;;;;5098481;28;20048;-94
2024/01/26 05:25:32;;;;;;;37.53;22.48;;;9.60;99.90;;;;;;5101212;28;20051;-94
2024/01/26 05:28:08;;;;;;;31.65;21.27;;;9.50;99.90;;;;;;5082163;28;20055;-94
2024/01/26 05:33:47;;;;;;;35.10;21.13;;;9.60;99.90;;;;;;5093088;28;20047;-94
2024/01/26 05:36:15;;;;;;;35.13;22.67;;;9.60;99.90;;;;;;5081292;28;20142;-94
2024/01/26 05:38:50;;;;;;;34.38;21.88;;;9.60;99.90;;;;;;5098038;28;20043;-95
2024/01/26 05:41:28;;;;;;;33.03;21.50;;;9.70;99.90;;;;;;5098950;28;20043;-94
2024/01/26 05:43:56;;;;;;;36.50;22.70;;;9.70;99.90;;;;;;5114774;28;20468;-95
2024/01/26 05:46:36;;;;;;;35.47;21.73;;;9.70;99.90;;;;;;5098800;28;20541;-94
2024/01/26 05:49:14;;;;;;;33.13;21.60;;;9.80;99.90;;;;;;5081881;28;20500;-95
2024/01/26 05:51:47;;;;;;;35.53;22.88;;;9.80;99.90;;;;;;5098509;28;20042;-94
2024/01/26 05:54:16;;;;;;;36.05;21.42;;;9.80;99.90;;;;;;5081100;28;20104;-94
2024/01/26 05:56:51;;;;;;;29.83;19.90;;;9.60;99.90;;;;;;5097608;28;20489;-95
2024/01/26 05:59:19;;;;;;;33.10;22.48;;;9.80;99.90;;;;;;5098115;28;20051;-94
2024/01/26 06:01:47;;;;;;;31.45;20.85;;;9.80;99.90;;;;;;5080818;28;20039;-94
2024/01/26 06:04:13;;;;;;;30.60;19.92;;;9.80;99.90;;;;;;5081326;28;20473;-94
2024/01/26 06:06:46;;;;;;;33.58;18.77;;;9.80;99.90;;;;;;5114932;28;20135;-94
2024/01/26 06:09:32;;;;;;;30.27;19.90;;;8.90;99.90;;;;;;5115299;27;20051;-94
2024/01/26 06:12:03;;;;;;;29.23;20.08;;;9.80;99.90;;;;;;5114446;28;20043;-94
2024/01/26 06:14:34;;;;;;;31.55;21.70;;;9.80;99.90;;;;;;5097596;28;20052;-94
2024/01/26 06:17:04;;;;;;;29.90;19.83;;;9.80;99.90;;;;;;5097957;28;20101;-95
2024/01/26 06:19:48;;;;;;;29.45;19.55;;;9.80;99.90;;;;;;5097164;28;20054;-94
2024/01/26 06:22:34;;;;;;;31.25;19.83;;;9.80;99.90;;;;;;5098279;28;20036;-94
2024/01/26 06:25:00;;;;;;;36.40;21.70;;;9.90;99.90;;;;;;5097030;28;20043;-95
2024/01/26 06:27:30;;;;;;;33.58;20.95;;;9.60;99.90;;;;;;5097378;28;20055;-94
2024/01/26 06:30:05;;;;;;;31.08;19.27;;;9.00;99.90;;;;;;5114711;27;20083;-94
2024/01/26 06:36:17;;;;;;;33.58;20.50;;;9.80;99.90;;;;;;5114677;28;20054;-95
2024/01/26 06:39:12;;;;;;;;;;;;;;;;;;;;;
2024/01/26 06:41:54;;;;;;;32.92;20.65;;;9.80;99.90;;;;;;5098787;28;20048;-95
2024/01/26 06:44:22;;;;;;;31.30;19.42;;;9.90;99.90;;;;;;5080765;28;20043;-94
2024/01/26 06:47:23;;;;;;;;;;;;;;;;;;;;;
2024/01/26 06:58:06;;;;;;;27.95;17.23;;;9.90;99.90;;;;;;5076008;28;20033;-93
2024/01/26 07:04:15;;;;;;;26.98;16.55;;;9.80;99.90;;;;;;5076593;28;19914;-93
2024/01/26 07:11:09;;;;;;;32.40;18.38;;;9.90;99.90;;;;;;5075748;28;20112;-93
2024/01/26 07:18:01;;;;;;;29.73;15.80;;;10.90;99.90;;;;;;5075305;28;20158;-92
2024/01/26 07:24:47;;;;;;;26.27;15.50;;;9.90;99.90;;;;;;5075789;28;20177;-92
2024/01/26 12:15:20;;;;;;;11.38;2.63;;;7.80;78.00;;;;;;5136051;27;20070;-92
2024/01/26 12:23:09;;;;;;;13.95;3.38;;;7.70;93.60;;;;;;5137400;27;20030;-92
2024/01/26 12:30:17;;;;;;;16.67;4.50;;;7.60;99.20;;;;;;5137349;27;20037;-93
2024/01/26 12:36:50;;;;;;;;;;;7.50;99.90;;;;;;5137655;27;20075;-92
2024/01/26 12:39:20;;;;;;;18.73;4.82;;;7.40;98.10;;;;;;5101916;27;20353;-93
2024/01/26 12:41:53;;;;;;;16.25;4.38;;;7.40;99.90;;;;;;5119534;27;20043;-93
2024/01/26 12:44:28;;;;;;;15.60;4.20;;;7.40;99.90;;;;;;5118909;27;20035;-93
2024/01/26 12:47:56;;;;;;;10.77;4.60;;;7.40;99.90;;;;;;5074743;28;20101;-93
2024/01/26 12:54:43;;;;;;;12.00;3.58;;;7.20;99.90;;;;;;5073971;28;20051;-93
2024/01/26 13:01:29;;;;;;;15.77;3.13;;;7.10;99.90;;;;;;5072780;28;20055;-93
2024/01/26 13:15:40;;;;;;;13.60;3.33;;;7.20;99.90;;;;;;5017953;28;20045;-93
2024/01/26 13:29:47;;;;;;;16.25;3.13;;;7.30;99.90;;;;;;5033657;28;20121;-93
2024/01/26 13:36:02;;;;;;;12.82;4.07;;;7.40;99.90;;;;;;5013369;28;20052;-95
2024/01/26 13:45:49;;;;;;;;;;;;;;;;;;;;;
2024/01/26 13:48:25;;;;;;;7.40;2.20;;;6.70;91.10;;;;;;5097757;28;19919;-93
2024/01/26 13:51:33;;;;;;;11.98;2.95;;;7.90;99.90;;;;;;5097342;28;20077;-95
2024/01/26 13:54:09;;;;;;;12.52;3.15;;;7.90;99.50;;;;;;5097290;28;20039;-94
2024/01/26 13:57:07;;;;;;;5.40;2.10;;;7.30;99.90;;;;;;5062940;28;20510;-95
2024/01/26 14:03:14;;;;;;;11.85;2.90;;;8.10;99.90;;;;;;5136116;27;20287;-95
2024/01/26 14:09:26;;;;;;;10.85;3.22;;;8.40;99.90;;;;;;5136560;27;20037;-95
2024/01/26 14:12:09;;;;;;;10.68;2.05;;;8.40;99.90;;;;;;5070150;27;20400;-95
2024/01/26 14:14:38;;;;;;;6.45;2.30;;;8.20;99.90;;;;;;5103664;27;20426;-95
2024/01/26 14:17:18;;;;;;;6.82;2.25;;;8.00;99.90;;;;;;5101064;27;20206;-94
2024/01/26 14:26:13;;;;;;;6.80;2.67;;;7.70;99.90;;;;;;5106489;28;20399;-94
2024/01/26 14:28:48;;;;;;;9.52;1.95;;;7.60;99.90;;;;;;5087586;27;20477;-95
2024/01/26 14:31:35;;;;;;;;;;;;;;;;;;;;;
2024/01/26 14:34:08;;;;;;;8.35;2.22;;;7.90;99.90;;;;;;5118324;28;20039;-95
2024/01/26 14:36:45;;;;;;;12.18;2.55;;;7.30;99.90;;;;;;5084010;28;20070;-95
2024/01/26 14:39:47;;;;;;;8.90;2.28;;;7.30;99.90;;;;;;5106679;28;20082;-94
2024/01/26 14:42:44;;;;;;;13.37;3.07;;;7.10;99.90;;;;;;5085354;28;20039;-95
2024/01/26 14:45:11;;;;;;;21.27;5.50;;;7.10;95.30;;;;;;5102567;28;20054;-95
2024/01/26 14:47:49;;;;;;;11.23;3.15;;;7.00;99.90;;;;;;5094380;28;20044;-94
2024/01/26 14:50:16;;;;;;;14.77;3.67;;;6.90;99.90;;;;;;5096227;28;20104;-95
2024/01/26 14:52:52;;;;;;;17.20;2.85;;;7.00;99.90;;;;;;5114409;28;20136;-95
2024/01/26 14:55:18;;;;;;;15.45;5.38;;;7.00;99.90;;;;;;5114005;28;20039;-95
2024/01/26 14:57:52;;;;;;;13.70;4.20;;;6.90;99.90;;;;;;5080384;28;20427;-96
2024/01/26 15:00:21;;;;;;;12.38;3.13;;;7.10;99.90;;;;;;5079463;28;20098;-95
2024/01/26 15:06:25;;;;;;;15.00;3.67;;;7.10;99.90;;;;;;5096515;28;20047;-95
2024/01/26 15:08:56;;;;;;;13.88;3.53;;;6.10;99.90;;;;;;5095611;28;20035;-95
2024/01/26 15:11:26;;;;;;;8.68;3.28;;;7.10;99.90;;;;;;5113396;28;20617;-96
2024/01/26 15:13:54;;;;;;;11.50;3.92;;;6.30;99.90;;;;;;5113651;28;20077;-95
2024/01/26 15:16:36;;;;;;;15.85;4.00;;;6.90;99.90;;;;;;5097194;28;20047;-95
2024/01/26 15:19:04;;;;;;;14.05;3.20;;;7.00;99.90;;;;;;5117805;28;20130;-95
2024/01/26 15:21:41;;;;;;;15.98;3.17;;;6.90;99.90;;;;;;5117803;27;20134;-96
2024/01/26 15:24:17;;;;;;;12.35;3.00;;;6.90;99.90;;;;;;5117440;28;20111;-95
2024/01/26 15:26:46;;;;;;;17.52;3.10;;;6.90;99.90;;;;;;5117526;28;20162;-96
2024/01/26 15:29:14;;;;;;;10.40;3.35;;;6.90;99.90;;;;;;5083735;28;20048;-96
2024/01/26 15:31:43;;;;;;;12.57;3.78;;;6.70;99.90;;;;;;5099420;28;20055;-95
2024/01/26 15:34:18;;;;;;;13.55;3.00;;;5.90;99.90;;;;;;5083119;28;20131;-95
2024/01/26 15:36:49;;;;;;;13.75;3.88;;;6.80;99.90;;;;;;5099472;28;20475;-95
2024/01/26 15:39:40;;;;;;;11.20;3.28;;;7.90;99.90;;;;;;5083395;28;20130;-96
2024/01/26 15:42:07;;;;;;;13.70;4.97;;;6.90;99.90;;;;;;5113938;28;20047;-95
2024/01/26 15:44:41;;;;;;;10.48;4.22;;;6.80;99.90;;;;;;5082510;28;20054;-96
2024/01/26 15:47:21;;;;;;;12.27;4.40;;;6.60;99.90;;;;;;5117005;28;20051;-95
2024/01/26 15:49:47;;;;;;;19.38;4.13;;;6.60;99.90;;;;;;5083801;28;20083;-96
2024/01/26 15:55:46;;;;;;;10.10;3.80;;;6.60;99.90;;;;;;5099819;28;20051;-95
2024/01/26 15:58:14;;;;;;;19.75;4.70;;;6.60;99.90;;;;;;5100378;28;20055;-96
2024/01/26 16:05:07;;;;;;;;;;;;;;;;;;;;;
2024/01/26 16:07:42;;;;;;;20.30;7.57;;;5.60;99.90;;;;;;5100032;28;20047;-95
2024/01/26 16:10:11;;;;;;;19.77;7.35;;;5.80;99.90;;;;;;5083226;28;20046;-96
2024/01/26 16:12:37;;;;;;;25.98;9.55;;;6.40;99.90;;;;;;5082300;28;20461;-96
2024/01/26 16:25:20;;;;;;;18.40;4.40;;;6.20;99.90;;;;;;5078345;28;20052;-96
2024/01/26 16:27:49;;;;;;;21.83;8.00;;;6.60;99.90;;;;;;5061411;28;20048;-96
2024/01/26 16:30:15;;;;;;;22.23;5.18;;;6.20;99.90;;;;;;5080567;27;20047;-96
2024/01/26 16:32:41;;;;;;;18.42;5.40;;;6.20;99.90;;;;;;5102746;27;20047;-96
2024/01/26 16:35:39;;;;;;;22.45;5.95;;;6.10;99.90;;;;;;5102662;27;20050;-96
2024/01/26 16:37:56;;;;;;;21.33;5.30;;;6.20;99.90;;;;;;5113802;27;20053;-96
2024/01/26 16:40:26;;;;;;;23.87;8.43;;;6.20;99.90;;;;;;5102448;27;20133;-96
2024/01/26 16:43:22;;;;;;;16.50;4.53;;;6.10;99.90;;;;;;5102213;27;20378;-96
2024/01/26 16:45:53;;;;;;;20.75;5.85;;;6.00;99.90;;;;;;5102805;27;20043;-96
2024/01/26 16:48:20;;;;;;;21.10;7.68;;;6.20;99.90;;;;;;5102894;27;20043;-95
2024/01/26 16:50:53;;;;;;;23.80;5.75;;;6.10;99.90;;;;;;5119190;27;20039;-96
2024/01/26 16:53:22;;;;;;;23.58;5.40;;;5.10;99.90;;;;;;5119138;27;20127;-96
2024/01/26 16:55:57;;;;;;;23.85;6.10;;;5.90;99.90;;;;;;5126773;27;20039;-96
2024/01/26 16:58:26;;;;;;;20.58;5.70;;;6.00;99.90;;;;;;5102869;27;20123;-96
2024/01/26 17:00:59;;;;;;;17.63;5.55;;;5.80;99.90;;;;;;5097311;28;20055;-96
2024/01/26 17:03:48;;;;;;;24.90;6.18;;;5.90;99.90;;;;;;5134830;27;20450;-96
2024/01/26 17:06:19;;;;;;;21.55;5.85;;;5.80;99.90;;;;;;5099211;28;20039;-96
2024/01/26 17:09:11;;;;;;;24.20;5.57;;;5.80;99.90;;;;;;5059880;28;20057;-95
2024/01/26 17:11:37;;;;;;;28.10;5.10;;;6.30;99.90;;;;;;5090482;28;20052;-96
2024/01/26 17:14:03;;;;;;;22.33;5.63;;;5.80;99.90;;;;;;5097886;28;20051;-96
2024/01/26 17:16:31;;;;;;;23.07;5.70;;;5.80;99.90;;;;;;5098356;28;20534;-96
2024/01/26 17:18:59;;;;;;;23.65;5.78;;;5.70;99.90;;;;;;5097919;28;20139;-95
2024/01/26 17:21:25;;;;;;;23.80;5.07;;;4.80;99.90;;;;;;5115465;28;20130;-96
2024/01/26 17:24:08;;;;;;;25.98;6.35;;;5.20;99.90;;;;;;5097957;28;20043;-95
2024/01/26 17:26:36;;;;;;;23.83;5.65;;;5.70;99.90;;;;;;5098170;28;20044;-96
2024/01/26 17:29:11;;;;;;;21.45;5.78;;;5.70;99.90;;;;;;5109520;28;20044;-95
2024/01/26 17:32:13;;;;;;;26.23;5.05;;;5.60;99.90;;;;;;5103694;28;20537;-96
2024/01/26 17:35:17;;;;;;;23.80;5.07;;;5.50;99.90;;;;;;5132110;27;20130;-96
2024/01/26 17:41:16;;;;;;;17.50;5.80;;;5.10;99.90;;;;;;5149237;27;20134;-96
2024/01/26 17:44:01;;;;;;;22.33;5.18;;;5.40;99.90;;;;;;5129006;27;20052;-96
2024/01/26 17:46:38;;;;;;;33.95;8.90;;;5.30;99.90;;;;;;5131381;27;20087;-96
2024/01/26 17:49:18;;;;;;;19.98;6.80;;;5.30;99.90;;;;;;5113995;28;20050;-96
2024/01/26 17:52:00;;;;;;;20.55;7.95;;;5.40;99.90;;;;;;5124707;27;20083;-96
2024/01/26 17:54:27;;;;;;;23.75;6.57;;;5.30;99.90;;;;;;5098007;28;20043;-96
2024/01/26 18:00:07;;;;;;;14.68;5.50;;;5.30;99.90;;;;;;5149254;27;20054;-96
2024/01/26 18:02:58;;;;;;;18.58;5.57;;;5.20;99.90;;;;;;5113894;28;20131;-95
2024/01/26 18:05:27;;;;;;;24.98;8.40;;;5.20;99.90;;;;;;5131248;27;20047;-96
2024/01/26 18:07:57;;;;;;;18.35;5.18;;;5.20;99.90;;;;;;5097442;28;20054;-96
2024/01/26 18:10:34;;;;;;;25.17;6.68;;;5.20;99.90;;;;;;5097611;28;20043;-96
2024/01/26 18:13:33;;;;;;;24.85;7.35;;;5.80;99.90;;;;;;5095371;27;20053;-96
2024/01/26 18:16:12;;;;;;;;;;;;;;;;;;;;;
2024/01/26 18:22:39;;;;;;;25.42;6.55;;;5.00;99.90;;;;;;5084996;28;20042;-96
2024/01/26 18:25:11;;;;;;;19.85;5.32;;;5.00;99.90;;;;;;5132146;27;20048;-96
2024/01/26 18:30:28;;;;;;;24.63;5.65;;;5.00;99.90;;;;;;5148839;27;20058;-96
2024/01/26 18:36:07;;;;;;;18.58;5.78;;;4.90;99.90;;;;;;5099336;28;20079;-96
2024/01/26 18:38:42;;;;;;;24.92;5.47;;;4.70;99.90;;;;;;5114110;28;20507;-96
2024/01/26 18:45:01;;;;;;;20.48;6.55;;;4.80;99.90;;;;;;5113347;28;20534;-96
2024/01/26 18:51:17;;;;;;;24.48;6.72;;;4.30;99.90;;;;;;5116830;28;20061;-96
2024/01/26 18:53:43;;;;;;;27.92;8.55;;;4.90;99.90;;;;;;5117851;28;20050;-96
2024/01/26 18:56:14;;;;;;;20.90;11.00;;;4.80;99.90;;;;;;5100536;28;20043;-95
2024/01/26 18:58:40;;;;;;;19.42;6.95;;;4.70;99.90;;;;;;5135611;27;20047;-95
2024/01/26 19:01:13;;;;;;;18.90;7.70;;;4.70;99.90;;;;;;5138184;27;20511;-96
2024/01/26 19:03:55;;;;;;;19.95;5.88;;;4.60;99.90;;;;;;5103822;27;20153;-96
2024/01/26 19:06:28;;;;;;;17.13;6.10;;;4.70;99.90;;;;;;5139460;27;20055;-96
2024/01/26 19:09:03;;;;;;;30.20;8.30;;;3.60;99.90;;;;;;5120671;27;20039;-96
2024/01/26 19:11:32;;;;;;;24.60;6.68;;;4.70;99.90;;;;;;5138491;27;20042;-96
2024/01/26 19:14:16;;;;;;;27.45;6.63;;;4.50;99.90;;;;;;5104645;27;20043;-96
2024/01/26 19:20:25;;;;;;;;;;;4.50;99.90;;;;;;5139641;27;20033;-96
2024/01/26 19:26:32;;;;;;;27.27;10.98;;;4.40;99.90;;;;;;5138842;27;20114;-96
2024/01/26 19:29:11;;;;;;;18.43;5.70;;;4.50;99.90;;;;;;5120454;27;20078;-96
2024/01/26 19:31:37;;;;;;;23.73;6.43;;;4.40;99.90;;;;;;5104071;27;20047;-96
2024/01/26 19:34:06;;;;;;;26.20;9.57;;;4.40;99.90;;;;;;5120627;27;20099;-96
2024/01/26 19:36:34;;;;;;;24.25;6.85;;;4.40;99.90;;;;;;5103874;27;20103;-96
2024/01/26 19:39:03;;;;;;;23.75;6.25;;;4.50;99.90;;;;;;5103581;27;20039;-96
2024/01/26 19:41:45;;;;;;;23.70;7.00;;;4.50;99.90;;;;;;5119694;27;20047;-96
2024/01/26 19:44:14;;;;;;;30.65;15.88;;;4.30;99.90;;;;;;5138147;27;20066;-96
2024/01/26 19:46:58;;;;;;;26.60;13.95;;;4.30;99.90;;;;;;5138221;27;20047;-96
2024/01/26 19:49:27;;;;;;;36.28;13.75;;;4.30;99.90;;;;;;5137761;27;20043;-96
2024/01/26 19:59:11;;;;;;;27.77;8.32;;;4.30;99.90;;;;;;5099327;28;20043;-96
2024/01/26 20:01:37;;;;;;;26.58;8.02;;;4.30;99.90;;;;;;5081640;28;20062;-96
2024/01/26 20:04:03;;;;;;;29.95;11.02;;;4.40;99.90;;;;;;5065760;28;20087;-96
2024/01/26 20:06:36;;;;;;;26.93;7.53;;;4.30;99.90;;;;;;5082569;28;20148;-96
2024/01/26 20:09:09;;;;;;;28.50;6.65;;;4.30;99.90;;;;;;5083661;28;20048;-96
2024/01/26 20:11:38;;;;;;;20.33;5.97;;;4.30;99.90;;;;;;5082532;28;20071;-96
2024/01/26 20:14:10;;;;;;;23.30;7.65;;;4.40;99.90;;;;;;5066503;28;20044;-96
2024/01/26 20:16:43;;;;;;;27.25;6.97;;;4.00;99.90;;;;;;5083176;28;20046;-96
2024/01/26 20:19:14;;;;;;;22.50;7.65;;;4.40;99.90;;;;;;5050101;28;20047;-96
2024/01/26 20:25:09;;;;;;;25.80;9.13;;;4.30;99.90;;;;;;5124352;27;20116;-96
2024/01/26 20:27:40;;;;;;;20.70;8.02;;;4.30;99.90;;;;;;5103792;27;20046;-95
2024/01/26 20:30:17;;;;;;;23.45;6.72;;;4.30;99.90;;;;;;5102893;27;20043;-96
2024/01/26 20:32:48;;;;;;;23.95;6.97;;;3.50;99.90;;;;;;5102393;27;20043;-96
2024/01/26 20:35:26;;;;;;;19.88;6.78;;;4.30;99.90;;;;;;5086525;27;20039;-96
2024/01/26 20:41:51;;;;;;;;;;;4.60;99.90;;;;;;5137894;27;20038;-96
2024/01/26 20:44:27;;;;;;;27.10;6.07;;;4.20;99.90;;;;;;5086683;27;19925;-96
2024/01/26 20:47:06;;;;;;;;;;;;;;;;;;;;;
2024/01/26 20:50:04;;;;;;;24.52;7.00;;;4.10;99.90;;;;;;5054965;28;20048;-96
2024/01/26 20:52:35;;;;;;;20.45;5.00;;;4.20;99.90;;;;;;5018241;28;20046;-96
2024/01/26 20:55:10;;;;;;;25.23;6.03;;;4.20;99.90;;;;;;5033835;28;20100;-96
2024/01/26 20:57:38;;;;;;;17.60;4.78;;;4.20;99.90;;;;;;5034782;28;20053;-96
2024/01/26 21:00:20;;;;;;;16.83;5.28;;;4.10;99.90;;;;;;5031862;28;20053;-96
2024/01/26 21:03:08;;;;;;;17.90;5.50;;;3.50;99.90;;;;;;4998532;28;20523;-96
2024/01/26 21:09:26;;;;;;;26.15;6.28;;;3.10;99.90;;;;;;5014183;28;20473;-96
2024/01/26 21:11:59;;;;;;;19.95;6.40;;;4.10;99.90;;;;;;4998749;28;20085;-96
2024/01/26 21:14:33;;;;;;;24.45;5.72;;;3.00;99.90;;;;;;4980425;28;20046;-96
2024/01/26 21:17:12;;;;;;;24.35;6.88;;;4.00;99.90;;;;;;5027125;28;20046;-96
2024/01/26 21:23:30;;;;;;;;;;;4.00;99.90;;;;;;5095869;28;20554;-96
2024/01/26 21:26:15;;;;;;;24.30;8.30;;;3.10;99.90;;;;;;5062158;28;19967;-96
2024/01/26 21:28:41;;;;;;;25.13;8.23;;;4.00;99.90;;;;;;5077486;28;20040;-96
2024/01/26 21:31:30;;;;;;;23.23;7.40;;;4.10;99.90;;;;;;5062317;28;20439;-96
2024/01/26 21:34:02;;;;;;;28.73;9.90;;;4.00;99.90;;;;;;5061196;28;20449;-96
2024/01/26 21:36:28;;;;;;;20.85;9.02;;;3.90;99.90;;;;;;5060897;28;20143;-96